Time;durP1;ratioP1;P1;durP2;ratioP2;P2;SDS_P1;SDS_P2;PMS_P1;PMS_P2;Temp;Humidity;BMP_temperature;BMP_pressure;BME280_temperature;BME280_humidity;BME280_pressure;Samples;Min_cycle;Max_cycle;Signal;HPM_P1;HPM_P2
2022/08/30 00:01:55;;;;;;;9.30;3.70;;;;;;;;;;10132849;28;20041;-66
2022/08/30 00:06:49;;;;;;;3.15;2.75;;;;;;;;;;10116805;28;20072;-66
2022/08/30 00:11:45;;;;;;;2.80;2.60;;;;;;;;;;10135705;28;20547;-64
2022/08/30 00:16:42;;;;;;;2.60;2.40;;;;;;;;;;10140399;28;20124;-64
2022/08/30 00:21:35;;;;;;;2.67;2.47;;;;;;;;;;10135762;28;20036;-65
2022/08/30 00:26:30;;;;;;;3.42;3.15;;;;;;;;;;10126346;28;20045;-63
2022/08/30 00:31:23;;;;;;;6.68;3.65;;;;;;;;;;10125623;28;20049;-63
2022/08/30 00:36:17;;;;;;;9.98;4.00;;;;;;;;;;10116630;28;20053;-63
2022/08/30 00:41:10;;;;;;;5.35;3.58;;;;;;;;;;10124824;28;20416;-63
2022/08/30 00:46:06;;;;;;;5.32;4.47;;;;;;;;;;10125287;28;20499;-64
2022/08/30 00:51:03;;;;;;;7.28;5.13;;;;;;;;;;10127924;28;20174;-64
2022/08/30 00:55:58;;;;;;;10.13;6.25;;;;;;;;;;10124494;28;20140;-63
2022/08/30 01:00:54;;;;;;;6.43;5.82;;;;;;;;;;10132507;28;20041;-63
2022/08/30 01:05:49;;;;;;;5.85;4.65;;;;;;;;;;10127271;28;20057;-63
2022/08/30 01:10:42;;;;;;;6.60;4.38;;;;;;;;;;10131007;28;20040;-63
2022/08/30 01:15:37;;;;;;;5.78;3.25;;;;;;;;;;10133378;28;20403;-64
2022/08/30 01:20:40;;;;;;;4.28;2.90;;;;;;;;;;10136669;28;20131;-63
2022/08/30 01:25:35;;;;;;;3.95;3.40;;;;;;;;;;10140702;28;20069;-63
2022/08/30 01:30:31;;;;;;;5.57;3.15;;;;;;;;;;10136862;28;20051;-63
2022/08/30 01:35:27;;;;;;;7.30;3.08;;;;;;;;;;10138481;28;20049;-63
2022/08/30 01:40:21;;;;;;;5.22;2.97;;;;;;;;;;10148351;28;20495;-63
2022/08/30 01:45:16;;;;;;;5.82;2.50;;;;;;;;;;10150992;28;20060;-64
2022/08/30 01:50:10;;;;;;;3.35;2.78;;;;;;;;;;10137593;28;20471;-63
2022/08/30 01:55:05;;;;;;;3.85;3.55;;;;;;;;;;10134108;28;20052;-63
2022/08/30 01:59:59;;;;;;;3.47;3.00;;;;;;;;;;10132793;28;20496;-63
2022/08/30 02:05:04;;;;;;;8.23;3.08;;;;;;;;;;10120055;28;20519;-63
2022/08/30 02:09:58;;;;;;;4.45;3.22;;;;;;;;;;10124857;28;20056;-62
2022/08/30 02:14:52;;;;;;;3.80;3.30;;;;;;;;;;10127439;28;20091;-62
2022/08/30 02:19:45;;;;;;;4.03;2.92;;;;;;;;;;10127335;28;20393;-62
2022/08/30 02:24:39;;;;;;;12.88;3.72;;;;;;;;;;10144611;28;20464;-62
2022/08/30 02:29:32;;;;;;;3.33;2.92;;;;;;;;;;10128367;28;20488;-61
2022/08/30 02:34:26;;;;;;;6.05;3.33;;;;;;;;;;10128663;28;20420;-62
2022/08/30 02:39:20;;;;;;;5.53;4.32;;;;;;;;;;10137048;28;20091;-62
2022/08/30 02:44:14;;;;;;;4.90;4.50;;;;;;;;;;10139959;28;20131;-61
2022/08/30 02:49:08;;;;;;;4.32;3.92;;;;;;;;;;10145888;28;20056;-61
2022/08/30 02:54:22;;;;;;;6.40;5.07;;;;;;;;;;10126634;28;20610;-61
2022/08/30 02:59:17;;;;;;;4.70;4.30;;;;;;;;;;10125564;28;20479;-63
2022/08/30 03:04:11;;;;;;;4.82;4.00;;;;;;;;;;10124598;28;20041;-63
2022/08/30 03:09:06;;;;;;;6.53;5.93;;;;;;;;;;10126717;28;20090;-63
2022/08/30 03:14:00;;;;;;;7.50;6.80;;;;;;;;;;10144680;28;20507;-62
2022/08/30 03:18:54;;;;;;;9.45;6.45;;;;;;;;;;10133683;28;20045;-62
2022/08/30 03:23:48;;;;;;;7.90;7.20;;;;;;;;;;10145239;28;20060;-62
2022/08/30 03:28:42;;;;;;;11.43;7.25;;;;;;;;;;10136499;28;20556;-61
2022/08/30 03:33:36;;;;;;;8.13;6.38;;;;;;;;;;10131927;28;20045;-62
2022/08/30 03:38:30;;;;;;;12.93;7.05;;;;;;;;;;10140835;28;20087;-62
2022/08/30 03:43:24;;;;;;;7.50;6.70;;;;;;;;;;10138030;28;20098;-61
2022/08/30 03:48:18;;;;;;;7.22;6.53;;;;;;;;;;10128188;28;20051;-63
2022/08/30 03:53:12;;;;;;;10.45;7.07;;;;;;;;;;10151725;28;20135;-62
2022/08/30 03:58:05;;;;;;;6.75;6.15;;;;;;;;;;10150254;28;20053;-62
2022/08/30 04:03:00;;;;;;;7.30;4.97;;;;;;;;;;10132382;28;20040;-62
2022/08/30 04:07:54;;;;;;;5.07;4.50;;;;;;;;;;10134367;28;20450;-62
2022/08/30 04:12:48;;;;;;;7.20;4.47;;;;;;;;;;10138795;28;20045;-61
2022/08/30 04:17:41;;;;;;;5.32;3.78;;;;;;;;;;10130428;28;20048;-62
2022/08/30 04:22:36;;;;;;;5.20;4.72;;;;;;;;;;10147998;28;20048;-62
2022/08/30 04:27:30;;;;;;;4.70;4.10;;;;;;;;;;10138249;28;20500;-61
2022/08/30 04:32:24;;;;;;;5.85;4.85;;;;;;;;;;10136889;28;20601;-61
2022/08/30 04:37:19;;;;;;;8.25;6.18;;;;;;;;;;10129712;28;20052;-62
2022/08/30 04:42:14;;;;;;;7.82;7.10;;;;;;;;;;10120294;28;20065;-62
2022/08/30 04:47:09;;;;;;;8.93;7.57;;;;;;;;;;10120640;28;20053;-61
2022/08/30 04:52:05;;;;;;;18.40;8.07;;;;;;;;;;10124930;28;20053;-62
2022/08/30 04:56:59;;;;;;;10.60;9.30;;;;;;;;;;10118668;28;20122;-61
2022/08/30 05:01:54;;;;;;;18.17;9.98;;;;;;;;;;10132285;28;20495;-61
2022/08/30 05:06:48;;;;;;;12.13;9.73;;;;;;;;;;10131421;28;20044;-61
2022/08/30 05:11:42;;;;;;;11.52;10.43;;;;;;;;;;10135352;28;20089;-62
2022/08/30 05:16:36;;;;;;;12.25;10.13;;;;;;;;;;10139301;28;20058;-61
2022/08/30 05:21:30;;;;;;;12.75;10.32;;;;;;;;;;10125467;28;20094;-62
2022/08/30 05:26:27;;;;;;;11.35;10.15;;;;;;;;;;10132778;28;20504;-62
2022/08/30 05:31:25;;;;;;;15.40;9.50;;;;;;;;;;10124892;28;20120;-61
2022/08/30 05:36:22;;;;;;;11.82;10.65;;;;;;;;;;10132327;28;20057;-61
2022/08/30 05:41:18;;;;;;;12.13;10.50;;;;;;;;;;10127516;28;20067;-61
2022/08/30 05:46:17;;;;;;;13.75;8.70;;;;;;;;;;10148875;28;20103;-61
2022/08/30 05:51:16;;;;;;;;;;;;;;;;;;10128120;28;20150;-61
2022/08/30 05:56:12;;;;;;;10.63;8.17;;;;;;;;;;10133259;28;19920;-62
2022/08/30 06:01:07;;;;;;;8.70;6.82;;;;;;;;;;10138465;28;20827;-63
2022/08/30 06:06:02;;;;;;;8.80;6.88;;;;;;;;;;10150181;28;20052;-62
2022/08/30 06:10:59;;;;;;;;;;;;;;;;;;10140172;28;20098;-63
2022/08/30 06:15:53;;;;;;;6.75;5.07;;;;;;;;;;10121711;28;19921;-68
2022/08/30 06:20:47;;;;;;;6.60;6.00;;;;;;;;;;10133795;28;20052;-67
2022/08/30 06:25:42;;;;;;;5.93;5.32;;;;;;;;;;10135167;28;20052;-66
2022/08/30 06:30:36;;;;;;;8.75;6.75;;;;;;;;;;10139842;28;20127;-65
2022/08/30 06:35:31;;;;;;;14.90;6.60;;;;;;;;;;10124905;28;20489;-65
2022/08/30 06:40:49;;;;;;;28.52;6.40;;;;;;;;;;10128660;28;20053;-65
2022/08/30 06:45:43;;;;;;;14.85;7.97;;;;;;;;;;10135322;28;20460;-65
2022/08/30 06:50:40;;;;;;;19.48;8.88;;;;;;;;;;10131176;28;20049;-64
2022/08/30 06:55:34;;;;;;;29.77;7.22;;;;;;;;;;10137743;28;20044;-64
2022/08/30 07:00:27;;;;;;;27.23;7.50;;;;;;;;;;10135675;28;20056;-64
2022/08/30 07:05:22;;;;;;;19.60;7.43;;;;;;;;;;10154739;28;20045;-64
2022/08/30 07:10:17;;;;;;;34.00;8.80;;;;;;;;;;10133077;28;20044;-63
2022/08/30 07:15:11;;;;;;;12.73;4.97;;;;;;;;;;10151087;28;20499;-62
2022/08/30 07:20:06;;;;;;;30.63;8.95;;;;;;;;;;10145714;28;20511;-62
2022/08/30 07:25:00;;;;;;;13.65;5.35;;;;;;;;;;10140697;28;20052;-61
2022/08/30 07:29:54;;;;;;;6.65;4.15;;;;;;;;;;10135201;28;20074;-61
2022/08/30 07:34:49;;;;;;;16.13;6.45;;;;;;;;;;10118638;28;20053;-62
2022/08/30 07:39:43;;;;;;;10.07;3.30;;;;;;;;;;10142380;28;20044;-62
2022/08/30 07:44:40;;;;;;;7.38;3.42;;;;;;;;;;10122178;28;20538;-62
2022/08/30 07:49:33;;;;;;;8.30;3.60;;;;;;;;;;10140308;28;20466;-61
2022/08/30 07:54:28;;;;;;;4.10;3.45;;;;;;;;;;10140977;28;20124;-61
2022/08/30 07:59:22;;;;;;;17.33;3.38;;;;;;;;;;10136921;28;20055;-63
2022/08/30 08:04:18;;;;;;;5.15;3.08;;;;;;;;;;10123749;28;20122;-61
2022/08/30 08:09:14;;;;;;;6.18;3.28;;;;;;;;;;10144369;28;20063;-61
2022/08/30 08:14:08;;;;;;;5.93;3.10;;;;;;;;;;10139649;28;20492;-62
2022/08/30 08:19:03;;;;;;;6.00;2.85;;;;;;;;;;10134755;28;20048;-62
2022/08/30 08:23:57;;;;;;;9.38;3.20;;;;;;;;;;10138486;28;20052;-63
2022/08/30 08:28:54;;;;;;;6.87;3.03;;;;;;;;;;10135132;28;20068;-62
2022/08/30 08:33:48;;;;;;;7.07;3.45;;;;;;;;;;10135932;28;20052;-62
2022/08/30 08:38:43;;;;;;;8.90;3.38;;;;;;;;;;10133240;28;20144;-62
2022/08/30 08:43:37;;;;;;;7.22;3.00;;;;;;;;;;10124748;28;20499;-64
2022/08/30 08:48:40;;;;;;;6.55;2.90;;;;;;;;;;10128934;28;20040;-61
2022/08/30 08:53:58;;;;;;;5.68;3.13;;;;;;;;;;10128595;28;20057;-64
2022/08/30 08:58:56;;;;;;;3.60;2.65;;;;;;;;;;10121059;28;20475;-64
2022/08/30 09:03:51;;;;;;;5.18;2.75;;;;;;;;;;10121809;28;20511;-66
2022/08/30 09:08:44;;;;;;;9.05;3.22;;;;;;;;;;10124034;28;20068;-65
2022/08/30 09:13:38;;;;;;;10.27;3.17;;;;;;;;;;10130186;28;20565;-67
2022/08/30 09:18:44;;;;;;;7.47;3.30;;;;;;;;;;10132608;28;20048;-65
2022/08/30 09:24:00;;;;;;;6.97;3.28;;;;;;;;;;10146791;28;20049;-64
2022/08/30 09:28:57;;;;;;;11.15;3.50;;;;;;;;;;10132181;28;20053;-64
2022/08/30 09:33:55;;;;;;;9.30;2.63;;;;;;;;;;10119952;28;20052;-64
2022/08/30 09:39:01;;;;;;;5.80;2.83;;;;;;;;;;10120779;28;20060;-64
2022/08/30 09:44:15;;;;;;;7.87;2.80;;;;;;;;;;10119478;28;20499;-65
2022/08/30 09:49:30;;;;;;;5.78;3.05;;;;;;;;;;10120941;28;20056;-65
2022/08/30 09:54:25;;;;;;;7.57;3.28;;;;;;;;;;10122308;28;20068;-65
2022/08/30 09:59:54;;;;;;;13.45;4.60;;;;;;;;;;10118077;28;20492;-64
2022/08/30 10:05:22;;;;;;;6.60;3.90;;;;;;;;;;10113260;28;20063;-65
2022/08/30 10:10:25;;;;;;;8.85;3.75;;;;;;;;;;10124638;28;20118;-64
2022/08/30 10:15:37;;;;;;;9.30;3.08;;;;;;;;;;10119123;28;20044;-63
2022/08/30 10:20:40;;;;;;;10.38;4.40;;;;;;;;;;10115025;28;20141;-62
2022/08/30 10:25:42;;;;;;;6.50;3.47;;;;;;;;;;10121896;28;20060;-63
2022/08/30 10:30:38;;;;;;;4.32;3.20;;;;;;;;;;10125094;28;20450;-68
2022/08/30 10:35:45;;;;;;;7.10;3.05;;;;;;;;;;10125517;28;20751;-64
2022/08/30 10:45:56;;;;;;;9.20;2.80;;;;;;;;;;10133284;28;20052;-61
2022/08/30 10:50:52;;;;;;;5.37;3.10;;;;;;;;;;10131425;28;20101;-64
2022/08/30 10:55:48;;;;;;;;;;;;;;;;;;10132665;28;20049;-62
2022/08/30 11:01:02;;;;;;;5.25;3.30;;;;;;;;;;10119499;28;19927;-64
2022/08/30 11:06:24;;;;;;;6.20;2.85;;;;;;;;;;10117525;28;20061;-62
2022/08/30 11:11:41;;;;;;;5.43;2.50;;;;;;;;;;10126344;28;20072;-65
2022/08/30 11:16:36;;;;;;;25.52;4.07;;;;;;;;;;10130119;28;20048;-64
2022/08/30 11:21:36;;;;;;;4.80;2.47;;;;;;;;;;10116266;28;20056;-63
2022/08/30 11:26:47;;;;;;;4.53;2.28;;;;;;;;;;10119007;28;20065;-63
2022/08/30 11:31:41;;;;;;;5.03;2.78;;;;;;;;;;10119804;28;20091;-62
2022/08/30 11:36:39;;;;;;;6.88;2.75;;;;;;;;;;10115610;28;20503;-63
2022/08/30 11:41:41;;;;;;;4.57;2.88;;;;;;;;;;10139601;28;20051;-62
2022/08/30 11:46:42;;;;;;;10.00;3.35;;;;;;;;;;10134454;28;20466;-62
2022/08/30 11:52:03;;;;;;;7.43;2.72;;;;;;;;;;10145619;28;20057;-63
2022/08/30 11:57:28;;;;;;;6.07;3.00;;;;;;;;;;10131113;28;20044;-63
2022/08/30 12:02:47;;;;;;;5.03;2.90;;;;;;;;;;10118046;28;20060;-63
2022/08/30 12:07:58;;;;;;;6.10;3.00;;;;;;;;;;10119279;28;20105;-65
2022/08/30 12:12:53;;;;;;;3.42;3.13;;;;;;;;;;10113499;28;20140;-64
2022/08/30 12:19:04;;;;;;;7.90;3.05;;;;;;;;;;10119246;28;20461;-62
2022/08/30 12:24:38;;;;;;;;;;;;;;;;;;10134396;28;20174;-62
2022/08/30 12:29:58;;;;;;;4.90;2.58;;;;;;;;;;10119211;28;20317;-62
2022/08/30 12:35:29;;;;;;;6.45;2.42;;;;;;;;;;10123705;28;20067;-62
2022/08/30 12:40:36;;;;;;;4.30;2.20;;;;;;;;;;10142270;28;20107;-62
2022/08/30 12:45:57;;;;;;;2.67;2.42;;;;;;;;;;10117002;28;20053;-62
2022/08/30 12:51:25;;;;;;;3.67;1.95;;;;;;;;;;10134996;28;20068;-62
2022/08/30 12:56:22;;;;;;;5.07;2.80;;;;;;;;;;10126162;28;20057;-62
2022/08/30 13:01:44;;;;;;;5.88;2.80;;;;;;;;;;10134535;28;20576;-62
2022/08/30 13:07:41;;;;;;;5.50;2.67;;;;;;;;;;10129289;28;20440;-61
2022/08/30 13:13:11;;;;;;;3.00;2.05;;;;;;;;;;10126325;28;20070;-61
2022/08/30 13:18:31;;;;;;;7.18;3.63;;;;;;;;;;10131958;28;20041;-62
2022/08/30 13:23:57;;;;;;;7.88;2.60;;;;;;;;;;10124560;28;20052;-62
2022/08/30 13:29:27;;;;;;;6.28;2.30;;;;;;;;;;10127252;28;20063;-62
2022/08/30 13:34:26;;;;;;;5.75;3.22;;;;;;;;;;10140319;28;20542;-62
2022/08/30 13:39:21;;;;;;;4.50;2.47;;;;;;;;;;10130875;28;20057;-61
2022/08/30 13:44:29;;;;;;;5.55;2.85;;;;;;;;;;10132247;28;20428;-61
2022/08/30 13:49:27;;;;;;;4.65;3.63;;;;;;;;;;10143261;28;20063;-61
2022/08/30 13:54:36;;;;;;;11.85;4.20;;;;;;;;;;10128657;28;20049;-62
2022/08/30 13:59:32;;;;;;;4.25;3.00;;;;;;;;;;10136462;28;20057;-62
2022/08/30 14:04:26;;;;;;;5.88;3.08;;;;;;;;;;10132449;28;20041;-62
2022/08/30 14:09:20;;;;;;;4.72;3.38;;;;;;;;;;10127615;28;20055;-62
2022/08/30 14:14:15;;;;;;;8.63;3.63;;;;;;;;;;10132942;28;20041;-63
2022/08/30 14:19:28;;;;;;;10.23;3.80;;;;;;;;;;10129100;28;20044;-61
2022/08/30 14:24:24;;;;;;;10.02;3.63;;;;;;;;;;10140123;28;20534;-60
2022/08/30 14:29:24;;;;;;;10.10;5.13;;;;;;;;;;10143305;28;20068;-62
2022/08/30 14:34:21;;;;;;;7.18;6.13;;;;;;;;;;10134742;28;20056;-63
2022/08/30 14:39:21;;;;;;;30.55;8.15;;;;;;;;;;10120633;28;20514;-65
2022/08/30 14:44:15;;;;;;;12.38;4.25;;;;;;;;;;10113483;28;20498;-70
2022/08/30 14:49:10;;;;;;;6.20;2.55;;;;;;;;;;10123681;28;20545;-75
2022/08/30 14:54:04;;;;;;;15.25;6.55;;;;;;;;;;10121605;28;20052;-73
2022/08/30 14:59:01;;;;;;;11.15;4.68;;;;;;;;;;10134684;28;20068;-74
2022/08/30 15:03:55;;;;;;;4.97;3.22;;;;;;;;;;10139508;28;20070;-74
2022/08/30 15:08:50;;;;;;;6.55;4.40;;;;;;;;;;10133376;28;20060;-73
2022/08/30 15:13:45;;;;;;;8.63;5.07;;;;;;;;;;10131772;28;20052;-73
2022/08/30 15:18:40;;;;;;;11.38;4.78;;;;;;;;;;10127283;28;20045;-70
2022/08/30 15:23:34;;;;;;;9.18;3.00;;;;;;;;;;10130947;28;20059;-73
2022/08/30 15:28:28;;;;;;;3.50;1.75;;;;;;;;;;10132691;28;20060;-72
2022/08/30 15:33:23;;;;;;;4.68;1.80;;;;;;;;;;10129730;28;20052;-72
2022/08/30 15:38:17;;;;;;;4.72;2.05;;;;;;;;;;10143243;28;20442;-71
2022/08/30 15:43:14;;;;;;;5.20;3.00;;;;;;;;;;10134856;28;20056;-72
2022/08/30 15:48:08;;;;;;;2.90;1.80;;;;;;;;;;10133269;28;20091;-72
2022/08/30 15:53:05;;;;;;;4.03;2.15;;;;;;;;;;10121697;28;20059;-68
2022/08/30 15:57:59;;;;;;;4.25;1.77;;;;;;;;;;10132431;28;20052;-66
2022/08/30 16:02:54;;;;;;;5.35;2.20;;;;;;;;;;10125943;28;20148;-71
2022/08/30 16:07:47;;;;;;;5.07;2.22;;;;;;;;;;10134209;28;20123;-70
2022/08/30 16:12:42;;;;;;;5.90;1.90;;;;;;;;;;10136714;28;20504;-71
2022/08/30 16:17:36;;;;;;;6.50;2.33;;;;;;;;;;10127972;28;20045;-72
2022/08/30 16:22:31;;;;;;;4.28;2.30;;;;;;;;;;10136761;28;20044;-73
2022/08/30 16:27:26;;;;;;;3.47;2.90;;;;;;;;;;10130421;28;20088;-69
2022/08/30 16:32:20;;;;;;;6.03;4.20;;;;;;;;;;10118433;28;20056;-72
2022/08/30 16:37:16;;;;;;;5.40;3.78;;;;;;;;;;10145255;28;20083;-72
2022/08/30 16:42:11;;;;;;;5.93;4.18;;;;;;;;;;10119574;28;20048;-72
2022/08/30 16:47:12;;;;;;;8.05;4.35;;;;;;;;;;10118479;28;20072;-72
2022/08/30 16:52:07;;;;;;;4.80;3.58;;;;;;;;;;10121705;28;20056;-70
2022/08/30 16:57:03;;;;;;;5.45;3.40;;;;;;;;;;10125905;28;20048;-68
2022/08/30 17:01:58;;;;;;;5.28;3.50;;;;;;;;;;10130333;28;20036;-67
2022/08/30 17:06:52;;;;;;;4.22;3.92;;;;;;;;;;10134613;28;20097;-68
2022/08/30 17:11:46;;;;;;;7.30;5.10;;;;;;;;;;10126362;28;20385;-68
2022/08/30 17:16:40;;;;;;;10.55;6.82;;;;;;;;;;10137059;28;20060;-68
2022/08/30 17:21:37;;;;;;;15.18;13.68;;;;;;;;;;10142637;28;20434;-68
2022/08/30 17:26:34;;;;;;;14.32;12.70;;;;;;;;;;10125442;28;20132;-68
2022/08/30 17:31:29;;;;;;;10.40;9.40;;;;;;;;;;10118146;28;20053;-68
2022/08/30 17:36:23;;;;;;;13.07;11.85;;;;;;;;;;10136333;28;20060;-68
2022/08/30 17:41:17;;;;;;;11.82;10.70;;;;;;;;;;10129833;28;20423;-68
2022/08/30 17:46:18;;;;;;;8.77;7.88;;;;;;;;;;10131791;28;20058;-67
2022/08/30 17:51:13;;;;;;;8.20;7.10;;;;;;;;;;10132591;28;20502;-68
2022/08/30 17:56:08;;;;;;;7.53;6.72;;;;;;;;;;10137253;28;20098;-68
2022/08/30 18:01:08;;;;;;;7.80;5.18;;;;;;;;;;10125311;28;20063;-69
2022/08/30 18:06:04;;;;;;;10.50;4.78;;;;;;;;;;10127362;28;20049;-69
2022/08/30 18:10:58;;;;;;;6.07;4.80;;;;;;;;;;10128048;28;20533;-70
2022/08/30 18:15:51;;;;;;;7.00;6.07;;;;;;;;;;10132872;28;20095;-70
2022/08/30 18:20:45;;;;;;;7.32;6.00;;;;;;;;;;10141912;28;20073;-69
2022/08/30 18:25:40;;;;;;;9.93;6.22;;;;;;;;;;10147668;28;20118;-69
2022/08/30 18:30:34;;;;;;;12.32;6.65;;;;;;;;;;10140321;28;20053;-69
2022/08/30 18:35:34;;;;;;;9.60;6.18;;;;;;;;;;10143807;28;20106;-69
2022/08/30 18:40:28;;;;;;;7.32;6.63;;;;;;;;;;10145640;28;20148;-69
2022/08/30 18:45:23;;;;;;;11.45;6.45;;;;;;;;;;10129202;28;20056;-69
2022/08/30 18:50:17;;;;;;;6.55;5.75;;;;;;;;;;10138519;28;20410;-68
2022/08/30 18:55:12;;;;;;;6.95;6.25;;;;;;;;;;10148113;28;20044;-69
2022/08/30 19:00:09;;;;;;;8.27;6.07;;;;;;;;;;10144514;28;20198;-69
2022/08/30 19:05:03;;;;;;;8.13;7.00;;;;;;;;;;10126245;28;20048;-69
2022/08/30 19:09:57;;;;;;;8.45;6.95;;;;;;;;;;10132675;28;20037;-68
2022/08/30 19:14:51;;;;;;;8.55;7.70;;;;;;;;;;10142909;28;20395;-69
2022/08/30 19:19:46;;;;;;;7.63;6.93;;;;;;;;;;10148214;28;20415;-69
2022/08/30 19:24:44;;;;;;;7.18;6.47;;;;;;;;;;10127535;28;20055;-69
2022/08/30 19:29:39;;;;;;;9.02;6.60;;;;;;;;;;10146719;28;20052;-65
2022/08/30 19:34:36;;;;;;;8.00;6.80;;;;;;;;;;10144457;28;20569;-66
2022/08/30 19:39:30;;;;;;;7.70;6.20;;;;;;;;;;10138833;28;20056;-69
2022/08/30 19:44:23;;;;;;;7.97;5.72;;;;;;;;;;10135980;28;20074;-68
2022/08/30 19:49:18;;;;;;;8.70;6.68;;;;;;;;;;10139484;28;20159;-69
2022/08/30 19:54:15;;;;;;;6.70;5.97;;;;;;;;;;10139157;28;20623;-67
2022/08/30 19:59:11;;;;;;;10.88;6.68;;;;;;;;;;10128518;28;20859;-68
2022/08/30 20:04:05;;;;;;;9.98;6.60;;;;;;;;;;10125551;28;20045;-64
2022/08/30 20:08:59;;;;;;;7.68;6.70;;;;;;;;;;10130173;28;20052;-67
2022/08/30 20:13:53;;;;;;;7.95;7.25;;;;;;;;;;10131461;28;20048;-64
2022/08/30 20:18:48;;;;;;;9.05;7.65;;;;;;;;;;10128153;28;20060;-68
2022/08/30 20:23:42;;;;;;;9.10;8.18;;;;;;;;;;10127084;28;20060;-68
2022/08/30 20:28:37;;;;;;;13.82;11.00;;;;;;;;;;10122476;28;20052;-72
2022/08/30 20:33:32;;;;;;;11.48;10.32;;;;;;;;;;10126896;28;20549;-72
2022/08/30 20:38:27;;;;;;;12.52;11.30;;;;;;;;;;10128263;28;20818;-67
2022/08/30 20:43:23;;;;;;;12.95;11.65;;;;;;;;;;10117022;28;20052;-69
2022/08/30 20:48:16;;;;;;;12.23;11.13;;;;;;;;;;10127447;28;20053;-68
2022/08/30 20:53:11;;;;;;;11.50;10.30;;;;;;;;;;10122512;28;20837;-67
2022/08/30 20:58:05;;;;;;;10.82;9.73;;;;;;;;;;10129124;28;20451;-68
2022/08/30 21:03:00;;;;;;;12.02;9.73;;;;;;;;;;10118015;28;20415;-67
2022/08/30 21:08:00;;;;;;;10.90;9.90;;;;;;;;;;10122945;28;20048;-67
2022/08/30 21:13:01;;;;;;;11.00;10.10;;;;;;;;;;10119257;28;20063;-65
2022/08/30 21:17:55;;;;;;;16.60;11.52;;;;;;;;;;10125735;28;20048;-64
2022/08/30 21:22:49;;;;;;;10.25;9.35;;;;;;;;;;10130305;28;20048;-67
2022/08/30 21:27:43;;;;;;;18.92;11.65;;;;;;;;;;10124009;28;20060;-70
2022/08/30 21:32:37;;;;;;;11.07;9.98;;;;;;;;;;10124188;28;20856;-69
2022/08/30 21:37:31;;;;;;;10.63;9.55;;;;;;;;;;10124945;28;20467;-67
2022/08/30 21:42:28;;;;;;;11.88;10.68;;;;;;;;;;10132205;28;20568;-66
2022/08/30 21:47:23;;;;;;;10.40;8.55;;;;;;;;;;10124747;28;20102;-64
2022/08/30 21:52:16;;;;;;;9.73;8.82;;;;;;;;;;10123280;28;20060;-65
2022/08/30 21:57:10;;;;;;;11.30;10.07;;;;;;;;;;10130929;28;20055;-66
2022/08/30 22:02:04;;;;;;;14.52;12.73;;;;;;;;;;10126892;28;20445;-66
2022/08/30 22:06:59;;;;;;;20.48;17.42;;;;;;;;;;10132156;28;20077;-67
2022/08/30 22:11:53;;;;;;;15.55;14.13;;;;;;;;;;10125770;28;20075;-67
2022/08/30 22:16:47;;;;;;;15.88;14.05;;;;;;;;;;10126351;28;20470;-60
2022/08/30 22:21:41;;;;;;;16.05;14.45;;;;;;;;;;10129641;28;20056;-61
2022/08/30 22:26:35;;;;;;;16.25;14.15;;;;;;;;;;10127844;28;20053;-61
2022/08/30 22:31:29;;;;;;;14.77;13.45;;;;;;;;;;10126180;28;20447;-62
2022/08/30 22:36:26;;;;;;;16.67;15.15;;;;;;;;;;10132336;28;20048;-62
2022/08/30 22:41:26;;;;;;;16.60;14.93;;;;;;;;;;10119396;28;20053;-61
2022/08/30 22:46:23;;;;;;;18.83;17.20;;;;;;;;;;10121617;28;20064;-61
2022/08/30 22:51:26;;;;;;;17.52;15.73;;;;;;;;;;10118109;28;20043;-61
2022/08/30 22:56:22;;;;;;;18.52;16.77;;;;;;;;;;10139434;28;20045;-61
2022/08/30 23:01:41;;;;;;;18.05;16.35;;;;;;;;;;10136643;28;20098;-61
2022/08/30 23:06:35;;;;;;;18.27;16.58;;;;;;;;;;10132574;28;20136;-58
2022/08/30 23:11:29;;;;;;;19.90;17.67;;;;;;;;;;10120037;28;20066;-59
2022/08/30 23:16:25;;;;;;;28.55;20.33;;;;;;;;;;10120909;28;20051;-59
2022/08/30 23:21:27;;;;;;;23.52;21.10;;;;;;;;;;10117123;28;20052;-61
